This is the latest recevied weather packets stored in our database for station/object YC0TBU. If no packets are shown the sender has not sent any weather packets the latest 10 day(s).
| Time | Temp. | Humidity | Pressure | Rain* | Wind** | Luminosity | Snow |
|---|---|---|---|---|---|---|---|
| 1777569739 | 32.78° C | 59% | 1009 hPa | - | - | 0 W/m² | - |
| 1777569417 | 32.78° C | 60% | 1009 hPa | - | - | 0 W/m² | - |
| 1777569095 | 32.78° C | 60% | 1009 hPa | - | - | 0 W/m² | - |
| 1777568773 | 32.22° C | 61% | 1009 hPa | - | - | 0 W/m² | - |
| 1777568451 | 32.22° C | 63% | 1009 hPa | - | - | 0 W/m² | - |
| 1777568129 | 31.67° C | 65% | 1009 hPa | - | - | 0 W/m² | - |
| 1777567807 | 30° C | 71% | 1009 hPa | - | - | 0 W/m² | - |
| 1777567485 | 28.89° C | 76% | 1009 hPa | - | - | 0 W/m² | - |
| 1777567163 | 29.44° C | 77% | 1009 hPa | - | - | 0 W/m² | - |
| 1777566841 | 29.44° C | 76% | 1009 hPa | - | - | 0 W/m² | - |
| 1777566519 | 29.44° C | 76% | 1009 hPa | - | - | 0 W/m² | - |
| 1777566197 | 29.44° C | 77% | 1009 hPa | - | - | 0 W/m² | - |
| 1777565875 | 29.44° C | 76% | 1009 hPa | - | - | 0 W/m² | - |
| 1777565553 | 29.44° C | 76% | 1009 hPa | - | - | 0 W/m² | - |
| 1777565231 | 29.44° C | 77% | 1009 hPa | - | - | 0 W/m² | - |
| 1777564909 | 29.44° C | 76% | 1009 hPa | - | - | 0 W/m² | - |
| 1777564587 | 29.44° C | 77% | 1009 hPa | - | - | 0 W/m² | - |
| 1777564265 | 29.44° C | 76% | 1009 hPa | - | - | 0 W/m² | - |
| 1777563943 | 29.44° C | 76% | 1009 hPa | - | - | 0 W/m² | - |
| 1777563621 | 29.44° C | 76% | 1009 hPa | - | - | 0 W/m² | - |
| 1777563299 | 29.44° C | 76% | 1010 hPa | - | - | 0 W/m² | - |
| 1777562977 | 29.44° C | 77% | 1010 hPa | - | - | 0 W/m² | - |
| 1777562655 | 29.44° C | 77% | 1010 hPa | - | - | 0 W/m² | - |
| 1777562333 | 29.44° C | 77% | 1010 hPa | - | - | 0 W/m² | - |
| 1777562011 | 29.44° C | 77% | 1010 hPa | - | - | 0 W/m² | - |
* Rain since midnight (hover to see other rain measurements)
** Current wind speed in m/s (hover to see current wind gust speed)